Bookmark and Share
Track history (hours):
 

Chesapeake

More information available from US FCC via Universal Licensing System and Coast Guard Vessel Documentation Center.

Last reported at 2014-Apr-18 06:34 UTC. Time now 2014-Apr-20 11:41 UTC.
Position N 39°12' W 076°31'.

Length 34 m; draft 16 m.

Type: Tug. MMSI: 367123040.

NotesDate/timePositionNaut miles runAvg speedWind from/ knotsBaromVisibWave heightAir tempDewpointWater temp
2014-Apr-18 06:34N 39°12' W 076°31'3 2.8
2014-Apr-18 05:33N 39°13' W 076°35'0 0.1
2014-Apr-18 04:34N 39°13' W 076°35'0 0.0
2014-Apr-18 03:33N 39°13' W 076°35'0 0.3
2014-Apr-18 02:33N 39°13' W 076°35'3 2.6
2014-Apr-18 01:33N 39°15' W 076°33'0 0.0
2014-Apr-18 00:33N 39°15' W 076°33'2 2.1
2014-Apr-17 23:33N 39°17' W 076°36'0 0.0
2014-Apr-17 22:33N 39°17' W 076°36'0 0.0
2014-Apr-17 21:33N 39°17' W 076°36'2 2.5
2014-Apr-17 20:33N 39°15' W 076°34'0 0.0
2014-Apr-17 19:33N 39°15' W 076°34'0 0.0
2014-Apr-17 18:33N 39°15' W 076°34'0 0.0
2014-Apr-17 17:33N 39°15' W 076°34'0 0.0
2014-Apr-17 16:33N 39°15' W 076°34'0 0.0
2014-Apr-17 15:33N 39°15' W 076°34'0 0.0
2014-Apr-17 14:33N 39°15' W 076°34'1 1.3
2014-Apr-17 13:33N 39°14' W 076°33'1 1.5
2014-Apr-17 12:34N 39°13' W 076°35'7 6.7
2014-Apr-17 11:33N 39°11' W 076°26'  
2014-Apr-12 20:26N 39°35' W 074°04'7 8.1
2014-Apr-12 19:33N 39°41' W 074°01'8 7.8
2014-Apr-12 18:33N 39°49' W 073°58'8 8.1
2014-Apr-12 17:33N 39°57' W 073°57'8 8.2
2014-Apr-12 16:33N 40°05' W 073°55'11 8.4
2014-Apr-12 15:18N 40°16' W 073°54'14 8.1
2014-Apr-12 13:33N 40°30' W 073°56'9 9.5
2014-Apr-12 12:33N 40°38' W 074°03'8 7.9
2014-Apr-12 11:33N 40°45' W 073°58'4 3.7
2014-Apr-12 10:21N 40°48' W 073°54'0 0.1
2014-Apr-12 09:33N 40°48' W 073°54'0 0.0
2014-Apr-12 08:33N 40°48' W 073°54'5 0.6
2014-Apr-11 23:34N 40°43' W 073°58'5 5.1
2014-Apr-11 22:34N 40°40' W 074°03'0 0.0
2014-Apr-11 21:33N 40°40' W 074°03'0 0.2
2014-Apr-11 20:33N 40°39' W 074°03'0 0.0
2014-Apr-11 19:33N 40°39' W 074°03'0 0.0
2014-Apr-11 18:33N 40°39' W 074°03'0 0.0
2014-Apr-11 17:33N 40°39' W 074°03'0 0.2
2014-Apr-11 16:33N 40°39' W 074°02'1 0.8
2014-Apr-11 15:33N 40°39' W 074°03'4 4.2
2014-Apr-11 14:33N 40°34' W 074°02'41 5.7
2014-Apr-11 07:25N 39°54' W 073°57'6 7.3
2014-Apr-11 06:33N 39°47' W 073°58'7 7.4
2014-Apr-11 05:33N 39°40' W 074°01'7 7.3
2014-Apr-11 04:33N 39°34' W 074°04'9 7.2
2014-Apr-11 03:18N 39°26' W 074°11'5 7.1
2014-Apr-11 02:33N 39°22' W 074°15'17 7.1
2014-Apr-11 00:11N 39°09' W 074°29'35 0.8
2014-Apr-09 05:33N 39°37' W 074°03'1010.0
2014-Apr-09 04:33N 39°47' W 073°59'47 9.3
2014-Apr-08 23:33N 40°33' W 074°02'10 9.6
2014-Apr-08 22:33N 40°43' W 074°02'  

Dump ship's entire track history

sailing weather and tide predictions

Chesapeake — WDD3041 — position and weather